Welcome to Des Moines Iowa Weather. I am an independent private personal weather station on the Northwest Side of Des Moines, Iowa. Just East of Windsor Heights and just West of Glendale . This site is also mobile friendly.

There are no active watches, warnings or advisories


Visit our other weather sites:

Historical Data

Weather Station Setup



Weather Underground History page Text

Daily Summary for February 15, 2017 Units:  English    Metric   Both
« Previous Day
Next Day »
Daily Weekly Monthly Yearly Custom
  High: Low: Average:
Temperature: 40.8 °F 25.1 °F 32.9 °F
Dew Point: 25.0 °F 21.0 °F 22.8 °F
Humidity: 85 % 49 % 67 %
Wind Speed: 8.0 mph 0.0 mph 1.5 mph
Wind Gust: 16.0 mph - -
Wind:- - WNW
Pressure: 30.12 in 29.92 in -
Precipitation: 0.00 in    
Historical Graphs
 
 
Tabular Data for February 15, 2017
Time Temperature Dew Point Pressure Wind Wind Speed Wind Gust Humidity Rainfall Rate (Hourly)
00:13 33.2 °F 24.0 °F 30.04 in NE 4.0 mph 15.0 mph 69 % 0.00 in
00:28 32.8 °F 24.0 °F 30.05 in NNW 3.0 mph 12.0 mph 70 % 0.00 in
00:43 32.4 °F 24.0 °F 30.05 in NNW 3.0 mph 10.0 mph 72 % 0.00 in
00:58 31.9 °F 24.0 °F 30.05 in NNW 2.0 mph 9.0 mph 73 % 0.00 in
01:13 31.4 °F 23.0 °F 30.05 in North 3.0 mph 16.0 mph 72 % 0.00 in
01:28 31.1 °F 23.0 °F 30.06 in NW 4.0 mph 11.0 mph 71 % 0.00 in
01:43 30.8 °F 23.0 °F 30.07 in NNW 6.0 mph 12.0 mph 72 % 0.00 in
01:58 30.5 °F 22.0 °F 30.07 in North 3.0 mph 12.0 mph 72 % 0.00 in
02:14 30.3 °F 22.0 °F 30.07 in NNW 2.0 mph 10.0 mph 71 % 0.00 in
02:28 30.0 °F 22.0 °F 30.07 in NW 4.0 mph 9.0 mph 72 % 0.00 in
02:43 29.7 °F 22.0 °F 30.07 in NW 8.0 mph 9.0 mph 73 % 0.00 in
02:58 29.5 °F 22.0 °F 30.06 in NNW 2.0 mph 9.0 mph 73 % 0.00 in
03:14 29.2 °F 22.0 °F 30.07 in NNW 4.0 mph 11.0 mph 73 % 0.00 in
03:28 28.9 °F 22.0 °F 30.07 in NW 4.0 mph 10.0 mph 74 % 0.00 in
03:44 28.7 °F 21.0 °F 30.07 in Calm   10.0 mph 74 % 0.00 in
03:59 28.4 °F 21.0 °F 30.07 in Calm   9.0 mph 75 % 0.00 in
04:14 28.1 °F 21.0 °F 30.07 in NNW 1.0 mph 6.0 mph 75 % 0.00 in
04:29 27.8 °F 21.0 °F 30.07 in NNW 2.0 mph 5.0 mph 75 % 0.00 in
04:44 27.7 °F 21.0 °F 30.08 in Calm   8.0 mph 75 % 0.00 in
04:59 27.4 °F 21.0 °F 30.08 in North 1.0 mph 5.0 mph 76 % 0.00 in
05:14 27.1 °F 21.0 °F 30.08 in Calm   6.0 mph 77 % 0.00 in
05:29 26.7 °F 21.0 °F 30.09 in NNW 1.0 mph 5.0 mph 78 % 0.00 in
05:44 26.5 °F 21.0 °F 30.09 in Calm   4.0 mph 79 % 0.00 in
05:59 26.2 °F 21.0 °F 30.09 in Calm   3.0 mph 80 % 0.00 in
06:14 25.9 °F 21.0 °F 30.09 in NNW 1.0 mph 5.0 mph 81 % 0.00 in
06:29 25.7 °F 21.0 °F 30.10 in Calm     82 % 0.00 in
06:44 25.5 °F 21.0 °F 30.10 in Calm   4.0 mph 82 % 0.00 in
06:59 25.3 °F 21.0 °F 30.10 in Calm     83 % 0.00 in
07:16 25.2 °F 21.0 °F 30.11 in Calm   5.0 mph 84 % 0.00 in
07:32 25.2 °F 21.0 °F 30.11 in Calm   2.0 mph 84 % 0.00 in
07:46 25.1 °F 21.0 °F 30.11 in Calm     84 % 0.00 in
08:01 25.3 °F 21.0 °F 30.11 in NW 1.0 mph 3.0 mph 85 % 0.00 in
08:14 25.9 °F 22.0 °F 30.12 in North 2.0 mph 7.0 mph 85 % 0.00 in
08:29 26.6 °F 23.0 °F 30.12 in Calm   8.0 mph 85 % 0.00 in
08:45 27.9 °F 23.0 °F 30.12 in NW 3.0 mph 6.0 mph 80 % 0.00 in
08:59 28.7 °F 23.0 °F 30.11 in Calm   6.0 mph 79 % 0.00 in
09:15 29.1 °F 23.0 °F 30.12 in NNW 2.0 mph 9.0 mph 77 % 0.00 in
09:29 29.5 °F 23.0 °F 30.12 in Calm   9.0 mph 76 % 0.00 in
09:46 30.2 °F 23.0 °F 30.12 in NW 3.0 mph 12.0 mph 75 % 0.00 in
09:59 31.1 °F 23.0 °F 30.12 in NNW 4.0 mph 9.0 mph 71 % 0.00 in
10:15 31.6 °F 23.0 °F 30.11 in North 2.0 mph 9.0 mph 70 % 0.00 in
10:30 33.1 °F 24.0 °F 30.12 in NW 2.0 mph 8.0 mph 69 % 0.00 in
10:44 32.7 °F 24.0 °F 30.11 in NW 4.0 mph 10.0 mph 69 % 0.00 in
11:00 33.2 °F 23.0 °F 30.12 in NW 4.0 mph 9.0 mph 66 % 0.00 in
11:15 33.9 °F 24.0 °F 30.12 in NNW 4.0 mph 11.0 mph 66 % 0.00 in
11:30 34.2 °F 23.0 °F 30.12 in NW 3.0 mph 8.0 mph 64 % 0.00 in
11:46 35.1 °F 23.0 °F 30.12 in West 2.0 mph 11.0 mph 62 % 0.00 in
12:00 35.3 °F 23.0 °F 30.11 in NNE 4.0 mph 10.0 mph 61 % 0.00 in
12:16 35.9 °F 23.0 °F 30.10 in NW 3.0 mph 9.0 mph 60 % 0.00 in
12:31 36.6 °F 23.0 °F 30.09 in North 5.0 mph 10.0 mph 59 % 0.00 in
12:46 37.0 °F 24.0 °F 30.09 in Calm   9.0 mph 60 % 0.00 in
13:01 37.5 °F 25.0 °F 30.08 in WSW 4.0 mph 8.0 mph 60 % 0.00 in
13:16 38.7 °F 25.0 °F 30.07 in North 4.0 mph 8.0 mph 58 % 0.00 in
13:30 38.6 °F 24.0 °F 30.07 in Calm   5.0 mph 57 % 0.00 in
13:46 39.1 °F 24.0 °F 30.06 in West 4.0 mph 9.0 mph 55 % 0.00 in
14:01 38.9 °F 23.0 °F 30.06 in NW 1.0 mph 12.0 mph 53 % 0.00 in
14:16 39.4 °F 23.0 °F 30.05 in NNE 3.0 mph 8.0 mph 52 % 0.00 in
14:31 40.0 °F 23.0 °F 30.05 in NW 2.0 mph 9.0 mph 51 % 0.00 in
14:45 39.5 °F 23.0 °F 30.05 in WNW 3.0 mph 9.0 mph 52 % 0.00 in
15:01 40.0 °F 23.0 °F 30.04 in WNW 2.0 mph 8.0 mph 52 % 0.01 in
15:16 40.3 °F 24.0 °F 30.03 in WNW 1.0 mph 8.0 mph 52 % 0.01 in
15:31 40.6 °F 23.0 °F 30.03 in North 3.0 mph 6.0 mph 50 % 0.01 in
15:45 40.8 °F 23.0 °F 30.03 in NW 3.0 mph 8.0 mph 50 % 0.01 in
16:01 40.6 °F 23.0 °F 30.02 in NW 2.0 mph 8.0 mph 49 % 0.00 in
16:16 40.6 °F 24.0 °F 30.03 in NW 4.0 mph 6.0 mph 51 % 0.00 in
16:31 40.5 °F 24.0 °F 30.02 in NW 3.0 mph 6.0 mph 52 % 0.00 in
16:46 40.0 °F 23.0 °F 30.02 in Calm   5.0 mph 52 % 0.00 in
17:01 40.1 °F 23.0 °F 30.01 in Calm   4.0 mph 51 % 0.00 in
17:16 39.7 °F 24.0 °F 30.01 in Calm   3.0 mph 53 % 0.00 in
17:31 39.2 °F 24.0 °F 30.01 in Calm     55 % 0.00 in
17:45 38.7 °F 24.0 °F 30.00 in Calm     56 % 0.00 in
18:01 38.5 °F 24.0 °F 30.01 in Calm     56 % 0.00 in
18:16 37.9 °F 24.0 °F 30.00 in Calm     58 % 0.00 in
18:31 37.2 °F 23.0 °F 30.00 in Calm     58 % 0.00 in
18:46 36.3 °F 24.0 °F 30.00 in Calm     61 % 0.00 in
19:03 35.6 °F 24.0 °F 30.00 in Calm     63 % 0.00 in
19:16 35.1 °F 24.0 °F 29.98 in Calm     64 % 0.00 in
19:34 34.5 °F 24.0 °F 29.98 in Calm     65 % 0.00 in
19:46 34.2 °F 23.0 °F 29.98 in Calm     65 % 0.00 in
20:01 33.8 °F 24.0 °F 29.98 in Calm     67 % 0.00 in
20:31 33.3 °F 24.0 °F 29.98 in Calm     69 % 0.00 in
20:46 33.1 °F 24.0 °F 29.98 in Calm     69 % 0.00 in
21:01 32.7 °F 23.0 °F 29.98 in Calm     68 % 0.00 in
21:16 32.5 °F 23.0 °F 29.98 in Calm     69 % 0.00 in
21:31 32.5 °F 23.0 °F 29.98 in Calm     68 % 0.00 in
21:46 32.6 °F 23.0 °F 29.97 in Calm     68 % 0.00 in
22:01 32.6 °F 23.0 °F 29.97 in Calm     67 % 0.00 in
22:16 32.6 °F 23.0 °F 29.97 in Calm     68 % 0.00 in
22:31 32.7 °F 23.0 °F 29.95 in Calm     67 % 0.00 in
22:46 32.7 °F 23.0 °F 29.95 in Calm     67 % 0.00 in
23:01 32.5 °F 23.0 °F 29.95 in Calm     67 % 0.00 in
23:17 32.4 °F 22.0 °F 29.93 in Calm     66 % 0.00 in
23:32 32.4 °F 23.0 °F 29.92 in Calm     67 % 0.00 in
23:46 32.6 °F 22.0 °F 29.92 in Calm     66 % 0.00 in
Des Moines Weather and Climate
Compliments of Weather Underground - 3 mb

Script developed by  Jim McMurry - jmcmurry@mwt.net Adapted for the template by  Wim van der Kuil - Leuven-Template.eu

You find our weather info also at:

Weather Underground

Equipment we use:

Weather-station
Davis VP2 Plus

Weather-program
Davis Weatherlink.Com

Weather-server
iMac (Retina 4K, 21.5-inch, Late 2015)

Provider
Hostmonster.com

Davis VP2 Plus

Davis Weatherlink.Com

iMac (Retina 4K, 21.5-inch, Late 2015)

Hostmonster.com